sensor_id;sensor_type;location;lat;lon;timestamp;pressure;altitude;pressure_sealevel;temperature;humidity
51528;BME280;37612;51.768;21.590;2023-04-06T20:03:37;99938.77;;;2.59;100.00
51528;BME280;37612;51.768;21.590;2023-04-06T20:07:39;99933.54;;;2.58;100.00
51528;BME280;37612;51.768;21.590;2023-04-06T20:11:42;99932.23;;;2.58;100.00
51528;BME280;37612;51.768;21.590;2023-04-06T20:15:43;99924.95;;;2.56;100.00
51528;BME280;37612;51.768;21.590;2023-04-06T20:19:46;99927.30;;;2.57;100.00
51528;BME280;37612;51.768;21.590;2023-04-06T20:23:48;99930.98;;;2.58;100.00
51528;BME280;37612;51.768;21.590;2023-04-06T20:27:52;99934.98;;;2.57;100.00
51528;BME280;37612;51.768;21.590;2023-04-06T20:31:54;99940.19;;;2.60;100.00
51528;BME280;37612;51.768;21.590;2023-04-06T20:36:00;99936.50;;;2.61;100.00
51528;BME280;37612;51.768;21.590;2023-04-06T20:40:03;99935.71;;;2.60;100.00
51528;BME280;37612;51.768;21.590;2023-04-06T20:44:05;99925.27;;;2.63;100.00
51528;BME280;37612;51.768;21.590;2023-04-06T20:48:07;99919.96;;;2.65;100.00
51528;BME280;37612;51.768;21.590;2023-04-06T20:52:09;99915.25;;;2.64;100.00
51528;BME280;37612;51.768;21.590;2023-04-06T20:56:14;99907.52;;;2.65;100.00
51528;BME280;37612;51.768;21.590;2023-04-06T21:00:17;99904.69;;;2.69;100.00
51528;BME280;37612;51.768;21.590;2023-04-06T21:04:19;99907.20;;;2.70;100.00
51528;BME280;37612;51.768;21.590;2023-04-06T21:08:23;99905.83;;;2.69;100.00
51528;BME280;37612;51.768;21.590;2023-04-06T21:12:24;99900.84;;;2.70;100.00
51528;BME280;37612;51.768;21.590;2023-04-06T21:16:27;99888.19;;;2.72;100.00
51528;BME280;37612;51.768;21.590;2023-04-06T21:20:29;99883.67;;;2.71;100.00
51528;BME280;37612;51.768;21.590;2023-04-06T21:24:31;99883.85;;;2.73;100.00
51528;BME280;37612;51.768;21.590;2023-04-06T21:28:33;99886.89;;;2.77;100.00
51528;BME280;37612;51.768;21.590;2023-04-06T21:32:35;99884.48;;;2.78;100.00
51528;BME280;37612;51.768;21.590;2023-04-06T21:36:38;99882.46;;;2.78;100.00
51528;BME280;37612;51.768;21.590;2023-04-06T21:40:40;99878.70;;;2.80;100.00
51528;BME280;37612;51.768;21.590;2023-04-06T21:44:42;99874.81;;;2.82;100.00
51528;BME280;37612;51.768;21.590;2023-04-06T21:48:44;99874.71;;;2.81;100.00
51528;BME280;37612;51.768;21.590;2023-04-06T21:52:47;99868.36;;;2.85;100.00
51528;BME280;37612;51.768;21.590;2023-04-06T21:56:49;99865.73;;;2.88;100.00
51528;BME280;37612;51.768;21.590;2023-04-06T22:00:50;99864.27;;;2.89;100.00
51528;BME280;37612;51.768;21.590;2023-04-06T22:04:52;99853.59;;;2.92;100.00
51528;BME280;37612;51.768;21.590;2023-04-06T22:08:55;99857.77;;;2.95;100.00
51528;BME280;37612;51.768;21.590;2023-04-06T22:12:58;99849.00;;;2.98;100.00
51528;BME280;37612;51.768;21.590;2023-04-06T22:17:00;99845.96;;;2.96;100.00
51528;BME280;37612;51.768;21.590;2023-04-06T22:21:02;99844.16;;;2.98;100.00
51528;BME280;37612;51.768;21.590;2023-04-06T22:25:05;99836.17;;;3.00;100.00
51528;BME280;37612;51.768;21.590;2023-04-06T22:29:07;99828.55;;;3.00;100.00
51528;BME280;37612;51.768;21.590;2023-04-06T22:33:09;99831.52;;;3.01;100.00
51528;BME280;37612;51.768;21.590;2023-04-06T22:37:11;99831.63;;;3.04;100.00
51528;BME280;37612;51.768;21.590;2023-04-06T22:41:13;99833.17;;;3.04;100.00
51528;BME280;37612;51.768;21.590;2023-04-06T22:45:15;99826.89;;;3.05;100.00
51528;BME280;37612;51.768;21.590;2023-04-06T22:49:17;99825.78;;;3.07;100.00
51528;BME280;37612;51.768;21.590;2023-04-06T22:53:18;99823.06;;;3.10;100.00
51528;BME280;37612;51.768;21.590;2023-04-06T22:57:20;99823.26;;;3.09;100.00
51528;BME280;37612;51.768;21.590;2023-04-06T23:01:23;99814.87;;;3.11;100.00
51528;BME280;37612;51.768;21.590;2023-04-06T23:05:24;99817.73;;;3.12;100.00
51528;BME280;37612;51.768;21.590;2023-04-06T23:09:26;99816.84;;;3.11;100.00
51528;BME280;37612;51.768;21.590;2023-04-06T23:13:28;99816.60;;;3.13;100.00
51528;BME280;37612;51.768;21.590;2023-04-06T23:17:30;99822.52;;;3.16;100.00
51528;BME280;37612;51.768;21.590;2023-04-06T23:21:32;99817.92;;;3.18;100.00
51528;BME280;37612;51.768;21.590;2023-04-06T23:25:34;99820.81;;;3.17;100.00
51528;BME280;37612;51.768;21.590;2023-04-06T23:29:36;99813.19;;;3.18;100.00
51528;BME280;37612;51.768;21.590;2023-04-06T23:33:38;99813.30;;;3.21;100.00
51528;BME280;37612;51.768;21.590;2023-04-06T23:37:40;99806.71;;;3.24;100.00
51528;BME280;37612;51.768;21.590;2023-04-06T23:41:42;99806.23;;;3.24;100.00
51528;BME280;37612;51.768;21.590;2023-04-06T23:45:44;99800.83;;;3.26;100.00
51528;BME280;37612;51.768;21.590;2023-04-06T23:49:46;99797.81;;;3.30;100.00
51528;BME280;37612;51.768;21.590;2023-04-06T23:53:48;99798.55;;;3.31;100.00
51528;BME280;37612;51.768;21.590;2023-04-06T23:57:49;99794.80;;;3.33;100.00
